Meteo Giornale » Osservazioni meteo Italia » Firenze-Peretola

ore: 03:20 - Osservazioni Meteo Firenze-Peretola
Lat. 43° 48' N Lon. 11° 12' E Alt. 40 metri s.l.m.

nuvoloso Europe/Rome

21 °C

Nuvoloso

Temp. 24 Ore

21 °C

31 °C

Nord

5.5 Km/h

Dew point 18 °C

Umidità 82 %

Visibilità  10 Km

Il sole sorge alle ore 05:33

Il sole tramonta alle ore 21:03

Data e Ora Cielo e Fenomeni T °C DP °C Um. % Pres. hPa Vis. km Vento km/h
Oggi h: 03:20 nuvoloso Nuvoloso 21 18 82 1014 10 N 5.5
Oggi h: 02:50 poco_nuvoloso Poco Nuvoloso 21 18 82 1014 10 E/NE 7.4
Oggi h: 02:20 sereno Sereno 21 18 82 1014 10 N 3.7
Oggi h: 01:50 sereno Sereno 21 18 82 1014 10 N 0
Oggi h: 01:20 sereno Sereno 21 17 77 1014 10 N 5.5
Oggi h: 00:50 sereno Sereno 24 19 73 1014 10 S/SO 7.4
Oggi h: 00:20 sereno Sereno 24 18 69 1013 10 N 5.5
Ieri h: 23:50 sereno Sereno 23 18 73 1013 10 N 3.7
Ieri h: 23:20 sereno Sereno 24 18 69 1013 10 O 7.4
Ieri h: 22:50 sereno Sereno 25 18 65 1013 10 O/SO 9.3
Ieri h: 22:20 sereno Sereno 26 18 61 1013 10 SO 7.4
Ieri h: 21:50 sereno Sereno 26 18 61 1012 10 S/SO 7.4
Ieri h: 21:20 sereno Sereno 26 18 61 1012 10 S/SO 9.3
Ieri h: 20:50 sereno Sereno 27 18 57 1012 10 SO 13
Ieri h: 20:20 sereno Sereno 27 18 57 1012 10 O 7.4
Ieri h: 19:50 poco_nuvoloso Poco Nuvoloso 28 18 54 1012 10 O/NO 13
Ieri h: 19:20 nuvoloso Nuvoloso 28 18 54 1011 10 O 16.7
Ieri h: 18:50 nuvoloso Nuvoloso 29 17 48 1011 10 O 16.7
Ieri h: 18:20 nuvoloso Nuvoloso 29 17 48 1012 10 O 18.5
Ieri h: 17:50 nuvoloso Nuvoloso 29 18 51 1012 10 O/SO 20.3
Ieri h: 17:20 nuvoloso Nuvoloso 30 17 45 1012 10 O 18.5
Ieri h: 16:50 nuvoloso Nuvoloso 29 17 48 1012 10 O 20.3
Ieri h: 16:20 nuvoloso Nuvoloso 31 17 43 1012 10 O/SO 16.7
Ieri h: 15:50 nuvoloso Nuvoloso 30 17 45 1012 10 O 16.7
Ieri h: 15:20 nuvoloso Nuvoloso 31 17 43 1012 10 O 16.7
Ieri h: 14:50 nuvoloso Nuvoloso 30 17 45 1012 10 O 16.7
Ieri h: 14:20 nuvoloso Nuvoloso 31 17 43 1012 10 O 16.7
Ieri h: 13:20 molto_nuvoloso Molto Nuvoloso 28 17 51 1014 10 O 20.3
Ieri h: 12:50 nuvoloso Nuvoloso 29 16 45 1013 10 O 20.3
Ieri h: 12:20 nuvoloso Nuvoloso 30 15 40 1014 10 O/SO 22.2
Ieri h: 11:50 nuvoloso Nuvoloso 30 16 42 1013 10 O/SO 22.2
Ieri h: 11:20 poco_nuvoloso Poco Nuvoloso 29 17 48 1014 10 O/SO 14.8
Ieri h: 10:50 poco_nuvoloso Poco Nuvoloso 29 17 48 1014 10 SO 13
Ieri h: 10:20 poco_nuvoloso Poco Nuvoloso 28 18 54 1014 10 SO 13
Ieri h: 09:50 poco_nuvoloso Poco Nuvoloso 27 18 57 1014 10 SO 11.1
Ieri h: 09:20 nuvoloso Nuvoloso 27 19 61 1015 10 S/SO 11.1
Ieri h: 08:50 nuvoloso Nuvoloso 26 19 65 1015 10 SO 13
Ieri h: 08:20 nuvoloso Nuvoloso 26 20 69 1014 10 N 5.5
Ieri h: 07:50 molto_nuvoloso Molto Nuvoloso 25 20 73 1015 10 N 5.5
Ieri h: 07:20 molto_nuvoloso Molto Nuvoloso 24 20 78 1014 9 S/SE 7.4
Ieri h: 06:50 nuvoloso Nuvoloso 24 20 78 1014 9 SE 7.4
Ieri h: 06:20 molto_nuvoloso Molto Nuvoloso 23 19 78 1014 9 E/SE 7.4
Ieri h: 05:50 nuvoloso Nuvoloso 22 18 78 1014 9 N 5.5
Ieri h: 05:20 sereno Sereno 22 18 78 1015 10 E 9.3
Ieri h: 04:50 sereno Sereno 22 17 73 1015 10 E 9.3
Ieri h: 04:20 sereno Sereno 22 17 73 1015 10 E 11.1
Ieri h: 03:50 sereno Sereno 22 17 73 1015 10 E 7.4